createdAt,value
2019-04-27T00:00:22.966Z,20.53
2019-04-27T00:03:02.020Z,11.27
2019-04-27T00:05:46.600Z,11.17
2019-04-27T00:08:32.513Z,10.57
2019-04-27T00:11:13.646Z,15.30
2019-04-27T00:13:48.864Z,12.27
2019-04-27T00:16:35.874Z,5.30
2019-04-27T00:19:23.204Z,4.17
2019-04-27T00:22:04.695Z,12.17
2019-04-27T00:24:39.825Z,7.60
2019-04-27T00:27:15.456Z,7.53
2019-04-27T00:29:50.330Z,3.97
2019-04-27T00:32:25.463Z,10.90
2019-04-27T00:35:00.511Z,9.33
2019-04-27T00:40:34.554Z,8.97
2019-04-27T00:43:09.989Z,7.00
2019-04-27T00:45:45.143Z,8.87
2019-04-27T00:48:20.257Z,11.37
2019-04-27T00:50:55.297Z,7.87
2019-04-27T00:53:33.407Z,6.27
2019-04-27T00:56:13.964Z,6.43
2019-04-27T00:58:53.901Z,12.30
2019-04-27T01:01:45.620Z,7.77
2019-04-27T01:04:23.625Z,12.20
2019-04-27T01:06:59.485Z,11.23
2019-04-27T01:09:36.490Z,6.00
2019-04-27T01:12:13.606Z,3.73
2019-04-27T01:14:49.411Z,11.33
2019-04-27T01:17:24.809Z,8.87
2019-04-27T01:20:00.112Z,9.80
2019-04-27T01:22:35.845Z,9.70
2019-04-27T01:25:11.330Z,9.23
2019-04-27T01:28:03.943Z,10.83
2019-04-27T01:30:54.550Z,7.20
2019-04-27T01:33:30.304Z,4.83
2019-04-27T01:36:05.686Z,7.13
2019-04-27T01:38:41.006Z,8.47
2019-04-27T01:41:16.064Z,8.10
2019-04-27T01:43:51.471Z,7.77
2019-04-27T01:46:26.758Z,7.30
2019-04-27T01:49:01.752Z,10.27
2019-04-27T01:51:37.091Z,6.40
2019-04-27T01:54:12.884Z,9.47
2019-04-27T01:56:49.258Z,7.27
2019-04-27T01:59:24.156Z,7.83
2019-04-27T02:02:10.604Z,7.90
2019-04-27T02:04:49.669Z,6.43
2019-04-27T02:07:25.730Z,5.00
2019-04-27T02:10:03.325Z,15.33
2019-04-27T02:12:39.724Z,9.43
2019-04-27T02:15:34.232Z,10.27
2019-04-27T02:18:09.668Z,10.93
2019-04-27T02:20:45.525Z,9.33
2019-04-27T02:23:20.728Z,6.60
2019-04-27T02:25:55.785Z,9.83
2019-04-27T02:28:36.017Z,7.67
2019-04-27T02:31:12.283Z,8.37
2019-04-27T02:33:50.039Z,6.87
2019-04-27T02:36:24.760Z,6.80
2019-04-27T02:38:59.901Z,5.03
2019-04-27T02:41:35.798Z,6.87
2019-04-27T02:44:14.850Z,8.17
2019-04-27T02:46:50.355Z,5.80
2019-04-27T02:49:25.759Z,9.27
2019-04-27T02:52:02.009Z,8.37
2019-04-27T02:54:39.789Z,8.27
2019-04-27T02:57:13.850Z,14.40
2019-04-27T02:59:50.313Z,6.93
2019-04-27T03:02:33.403Z,8.50
2019-04-27T03:05:12.697Z,9.37
2019-04-27T03:07:45.837Z,4.77
2019-04-27T03:10:21.352Z,7.43
2019-04-27T03:13:00.133Z,4.63
2019-04-27T03:15:52.522Z,5.83
2019-04-27T03:18:40.090Z,8.00
2019-04-27T03:21:21.931Z,4.87
2019-04-27T03:23:56.841Z,10.50
2019-04-27T03:26:33.224Z,6.93
2019-04-27T03:29:09.783Z,11.13
2019-04-27T03:31:47.598Z,10.87
2019-04-27T03:34:22.227Z,9.43
2019-04-27T03:36:59.767Z,11.13
2019-04-27T03:39:34.215Z,9.97
2019-04-27T03:42:10.595Z,7.67
2019-04-27T03:44:46.003Z,10.07
2019-04-27T03:47:21.451Z,8.50
2019-04-27T03:49:56.266Z,8.97
2019-04-27T03:52:32.742Z,7.37
2019-04-27T03:55:10.322Z,8.50
2019-04-27T03:58:05.224Z,9.87
2019-04-27T04:00:40.394Z,6.87
2019-04-27T04:03:15.871Z,9.27
2019-04-27T04:05:51.939Z,12.60
2019-04-27T04:08:27.133Z,11.90
2019-04-27T04:11:03.160Z,13.67
2019-04-27T04:13:45.695Z,10.90
2019-04-27T04:16:21.511Z,7.63
2019-04-27T04:19:01.094Z,9.20
2019-04-27T04:21:36.746Z,7.70
2019-04-27T04:24:12.482Z,12.63
2019-04-27T04:26:49.986Z,14.90
2019-04-27T04:29:24.215Z,8.47
2019-04-27T04:32:00.485Z,14.87
2019-04-27T04:34:36.161Z,10.87
2019-04-27T04:37:11.065Z,5.77
2019-04-27T04:39:49.787Z,5.23
2019-04-27T04:42:32.748Z,9.43
2019-04-27T04:45:20.342Z,5.93
2019-04-27T04:47:59.734Z,7.63
2019-04-27T04:50:35.571Z,8.00
2019-04-27T04:53:12.233Z,5.17
2019-04-27T04:55:48.770Z,11.93
2019-04-27T04:58:22.991Z,4.60
2019-04-27T05:00:59.647Z,7.47
2019-04-27T05:03:54.769Z,11.90
2019-04-27T05:06:30.215Z,10.03
2019-04-27T05:09:05.514Z,8.83
2019-04-27T05:11:41.204Z,7.40
2019-04-27T05:14:16.297Z,7.53
2019-04-27T05:16:51.565Z,9.07
2019-04-27T05:19:28.724Z,8.27
2019-04-27T05:22:04.345Z,6.57
2019-04-27T05:24:39.452Z,13.53
2019-04-27T05:27:15.672Z,6.50
2019-04-27T05:29:51.373Z,6.17
2019-04-27T05:32:26.576Z,6.67
2019-04-27T05:35:01.569Z,3.97
2019-04-27T05:37:38.884Z,6.90
2019-04-27T05:40:13.255Z,7.53
2019-04-27T05:42:55.099Z,14.47
2019-04-27T05:46:01.054Z,8.70
2019-04-27T05:48:36.394Z,5.13
2019-04-27T05:51:11.329Z,7.33
2019-04-27T05:53:46.805Z,7.97
2019-04-27T05:56:21.852Z,8.93
2019-04-27T05:59:00.154Z,8.57
2019-04-27T06:01:33.819Z,10.70
2019-04-27T06:04:29.079Z,5.73
2019-04-27T06:07:04.171Z,9.67
2019-04-27T06:09:39.316Z,8.10
2019-04-27T06:12:14.304Z,7.40
2019-04-27T06:14:49.600Z,7.17
2019-04-27T06:17:24.542Z,5.90
2019-04-27T06:19:59.854Z,9.87
2019-04-27T06:22:36.032Z,5.93
2019-04-27T06:25:12.590Z,7.97
2019-04-27T06:27:47.531Z,8.03
2019-04-27T06:30:22.896Z,8.03
2019-04-27T06:32:59.334Z,8.20
2019-04-27T06:35:35.362Z,11.77
2019-04-27T06:38:11.609Z,5.93
2019-04-27T06:40:48.947Z,10.50
2019-04-27T06:43:24.981Z,6.67
2019-04-27T06:46:01.524Z,8.10
2019-04-27T06:48:36.452Z,5.43
2019-04-27T06:51:11.645Z,5.53
2019-04-27T06:53:59.451Z,12.80
2019-04-27T06:56:35.595Z,11.30
2019-04-27T06:59:10.595Z,12.73
2019-04-27T07:02:05.866Z,12.23
2019-04-27T07:04:41.051Z,10.10
2019-04-27T07:07:16.512Z,10.03
2019-04-27T07:09:51.328Z,12.10
2019-04-27T07:12:28.690Z,10.10
2019-04-27T07:15:03.091Z,9.57
2019-04-27T07:17:38.919Z,9.03
2019-04-27T07:20:14.216Z,7.30
2019-04-27T07:22:50.249Z,9.17
2019-04-27T07:25:25.986Z,11.23
2019-04-27T07:28:01.217Z,8.83
2019-04-27T07:30:38.682Z,8.20
2019-04-27T07:33:13.513Z,6.57
2019-04-27T07:35:52.165Z,5.97
2019-04-27T07:38:29.384Z,9.27
2019-04-27T07:41:05.224Z,9.50
2019-04-27T07:43:50.998Z,6.90
2019-04-27T07:46:28.232Z,10.50
2019-04-27T07:49:02.960Z,12.40
2019-04-27T07:51:41.447Z,10.13
2019-04-27T07:54:18.946Z,13.00
2019-04-27T07:57:09.951Z,8.10
2019-04-27T07:59:46.010Z,7.87
2019-04-27T08:02:21.237Z,8.40
2019-04-27T08:05:00.412Z,11.80
2019-04-27T08:07:36.715Z,6.40
2019-04-27T08:10:14.950Z,9.97
2019-04-27T08:12:49.820Z,10.40
2019-04-27T08:15:25.251Z,9.50
2019-04-27T08:18:00.205Z,8.93
2019-04-27T08:20:40.537Z,14.47
2019-04-27T08:23:14.286Z,10.23
2019-04-27T08:25:52.603Z,10.17
2019-04-27T08:28:28.681Z,12.27
2019-04-27T08:31:14.314Z,10.30
2019-04-27T08:33:49.547Z,12.73
2019-04-27T08:36:25.036Z,9.97
2019-04-27T08:39:00.014Z,8.97
2019-04-27T08:41:36.412Z,8.07
2019-04-27T08:44:11.273Z,8.43
2019-04-27T08:46:46.625Z,6.60
2019-04-27T08:49:21.706Z,11.50
2019-04-27T08:51:59.946Z,7.60
2019-04-27T08:54:33.344Z,12.60
2019-04-27T08:57:11.828Z,12.57
2019-04-27T08:59:46.955Z,10.00
2019-04-27T09:02:22.109Z,6.33
2019-04-27T09:05:16.509Z,4.97
2019-04-27T09:07:56.960Z,9.83
2019-04-27T09:10:53.503Z,8.87
2019-04-27T09:13:36.154Z,19.27
2019-04-27T09:16:18.634Z,10.87
2019-04-27T09:22:13.580Z,10.33
2019-04-27T09:24:42.265Z,15.77
2019-04-27T09:27:19.690Z,11.67
2019-04-27T09:29:58.988Z,13.03
2019-04-27T09:32:41.027Z,15.90
2019-04-27T09:35:16.691Z,6.83
2019-04-27T09:37:51.945Z,11.23
2019-04-27T09:40:29.090Z,14.00
2019-04-27T09:45:53.031Z,13.77
2019-04-27T09:48:27.857Z,10.73
2019-04-27T09:51:03.121Z,8.20
2019-04-27T09:53:37.890Z,11.07
2019-04-27T09:56:32.905Z,9.27
2019-04-27T09:59:10.761Z,9.07
2019-04-27T10:01:46.340Z,18.23
2019-04-27T10:04:21.749Z,20.70
2019-04-27T10:07:02.736Z,18.73
2019-04-27T10:09:39.523Z,16.43
2019-04-27T10:12:16.454Z,12.83
2019-04-27T10:14:51.636Z,15.23
2019-04-27T10:17:31.884Z,17.70
2019-04-27T10:20:11.164Z,20.97
2019-04-27T10:22:46.782Z,14.97
2019-04-27T10:25:26.261Z,14.90
2019-04-27T10:28:03.273Z,23.47
2019-04-27T10:30:38.821Z,28.60
2019-04-27T10:33:15.977Z,13.20
2019-04-27T10:35:50.996Z,20.53
2019-04-27T10:38:26.387Z,15.67
2019-04-27T10:41:01.339Z,16.90
2019-04-27T10:43:37.166Z,15.50
2019-04-27T10:46:11.943Z,17.27
2019-04-27T10:48:47.000Z,18.80
2019-04-27T10:51:22.357Z,23.37
2019-04-27T10:53:58.304Z,19.00
2019-04-27T10:56:33.343Z,16.40
2019-04-27T10:59:09.743Z,20.20
2019-04-27T11:01:45.969Z,21.43
2019-04-27T11:04:32.077Z,20.63
2019-04-27T11:07:08.374Z,20.13
2019-04-27T11:09:44.006Z,17.97
2019-04-27T11:12:19.176Z,24.23
2019-04-27T11:14:56.612Z,25.90
2019-04-27T11:17:32.898Z,17.90
2019-04-27T11:20:09.930Z,18.67
2019-04-27T11:22:46.425Z,20.27
2019-04-27T11:25:21.655Z,22.47
2019-04-27T11:27:57.863Z,21.93
2019-04-27T11:30:37.800Z,22.43
2019-04-27T11:33:12.827Z,22.50
2019-04-27T11:35:55.163Z,22.40
2019-04-27T11:38:31.143Z,23.13
2019-04-27T11:41:07.568Z,20.17
2019-04-27T11:43:42.780Z,17.97
2019-04-27T11:46:18.387Z,21.13
2019-04-27T11:48:53.732Z,18.73
2019-04-27T11:51:29.049Z,20.20
2019-04-27T11:54:04.243Z,16.70
2019-04-27T11:56:39.719Z,18.73
2019-04-27T11:59:15.904Z,17.90
2019-04-27T12:01:55.813Z,13.40
2019-04-27T12:04:30.301Z,18.37
2019-04-27T12:07:08.209Z,20.93
2019-04-27T12:09:41.954Z,16.53
2019-04-27T12:12:21.798Z,25.40
2019-04-27T12:14:56.086Z,21.37
2019-04-27T12:17:31.810Z,17.00
2019-04-27T12:20:07.595Z,15.67
2019-04-27T12:22:42.938Z,15.30
2019-04-27T12:25:18.359Z,19.23
2019-04-27T12:28:12.075Z,19.23
2019-04-27T12:30:48.411Z,12.90
2019-04-27T12:33:30.538Z,14.93
2019-04-27T12:36:06.733Z,17.53
2019-04-27T12:38:42.282Z,21.77
2019-04-27T12:41:17.554Z,19.90
2019-04-27T12:43:55.914Z,17.90
2019-04-27T12:46:31.781Z,17.77
2019-04-27T12:49:07.683Z,32.13
2019-04-27T12:51:42.748Z,26.83
2019-04-27T12:54:19.698Z,21.23
2019-04-27T12:57:15.946Z,22.03
2019-04-27T12:59:58.847Z,21.37
2019-04-27T13:02:52.338Z,20.07
2019-04-27T13:05:28.221Z,21.33
2019-04-27T13:08:03.239Z,20.60
2019-04-27T13:10:38.126Z,18.60
2019-04-27T13:13:13.106Z,20.33
2019-04-27T13:15:49.412Z,19.27
2019-04-27T13:18:25.742Z,24.17
2019-04-27T13:21:00.911Z,17.83
2019-04-27T13:23:37.138Z,23.00
2019-04-27T13:26:12.397Z,19.70
2019-04-27T13:28:47.200Z,17.97
2019-04-27T13:31:22.617Z,21.30
2019-04-27T13:33:57.631Z,18.67
2019-04-27T13:36:33.137Z,20.30
2019-04-27T13:39:08.897Z,25.63
2019-04-27T13:41:46.263Z,20.60
2019-04-27T13:44:21.502Z,23.80
2019-04-27T13:47:17.043Z,13.87
2019-04-27T13:50:06.490Z,21.50
2019-04-27T13:52:41.948Z,16.50
2019-04-27T13:55:16.798Z,17.23
2019-04-27T13:57:52.152Z,14.00
2019-04-27T14:00:27.110Z,18.27
2019-04-27T14:03:04.384Z,16.53
2019-04-27T14:05:39.060Z,14.27
2019-04-27T14:08:14.292Z,16.77
2019-04-27T14:10:51.302Z,16.90
2019-04-27T14:13:25.973Z,16.27
2019-04-27T14:16:00.816Z,17.30
2019-04-27T14:18:37.923Z,14.53
2019-04-27T14:21:12.572Z,17.30
2019-04-27T14:24:07.122Z,13.73
2019-04-27T14:26:42.218Z,13.77
2019-04-27T14:29:18.848Z,16.97
2019-04-27T14:31:53.440Z,19.83
2019-04-27T14:34:29.512Z,17.43
2019-04-27T14:37:05.425Z,16.80
2019-04-27T14:39:41.443Z,15.20
2019-04-27T14:42:16.542Z,16.37
2019-04-27T14:44:51.773Z,14.33
2019-04-27T14:47:26.675Z,21.87
2019-04-27T14:50:02.075Z,17.63
2019-04-27T14:52:36.928Z,14.63
2019-04-27T14:55:12.203Z,12.60
2019-04-27T14:57:47.247Z,19.63
2019-04-27T15:00:24.511Z,20.80
2019-04-27T15:02:59.524Z,16.70
2019-04-27T15:05:35.187Z,20.53
2019-04-27T15:08:10.349Z,17.40
2019-04-27T15:10:46.407Z,15.53
2019-04-27T15:13:21.499Z,21.47
2019-04-27T15:15:57.309Z,14.83
2019-04-27T15:18:34.614Z,17.43
2019-04-27T15:21:10.452Z,14.23
2019-04-27T15:23:48.200Z,17.87
2019-04-27T15:26:22.923Z,12.73
2019-04-27T15:28:59.423Z,14.60
2019-04-27T15:31:36.398Z,15.60
2019-04-27T15:34:12.770Z,16.63
2019-04-27T15:36:56.802Z,15.23
2019-04-27T15:39:50.607Z,23.20
2019-04-27T15:42:29.986Z,13.90
2019-04-27T15:45:05.082Z,15.23
2019-04-27T15:47:42.433Z,16.10
2019-04-27T15:50:18.247Z,18.23
2019-04-27T15:52:54.273Z,21.70
2019-04-27T15:55:34.545Z,19.73
2019-04-27T15:58:05.229Z,16.07
2019-04-27T16:00:40.073Z,16.60
2019-04-27T16:03:15.418Z,17.23
2019-04-27T16:05:50.488Z,14.07
2019-04-27T16:08:25.601Z,14.50
2019-04-27T16:11:00.856Z,14.80
2019-04-27T16:13:36.163Z,15.77
2019-04-27T16:16:11.737Z,13.63
2019-04-27T16:18:48.994Z,16.00
2019-04-27T16:21:24.410Z,15.07
2019-04-27T16:23:59.907Z,12.83
2019-04-27T16:26:54.639Z,11.83
2019-04-27T16:29:29.840Z,17.73
2019-04-27T16:32:02.826Z,12.80
2019-04-27T16:34:59.134Z,15.80
2019-04-27T16:37:52.108Z,12.70
2019-04-27T16:40:30.139Z,17.67
2019-04-27T16:43:05.185Z,16.83
2019-04-27T16:45:40.911Z,17.20
2019-04-27T16:48:18.432Z,19.87
2019-04-27T16:50:55.224Z,19.70
2019-04-27T16:53:30.141Z,21.67
2019-04-27T16:56:14.830Z,19.43
2019-04-27T16:58:56.256Z,11.97
2019-04-27T17:01:30.467Z,14.83
2019-04-27T17:04:06.354Z,19.17
2019-04-27T17:06:46.181Z,17.43
2019-04-27T17:09:18.889Z,24.50
2019-04-27T17:11:55.091Z,23.93
2019-04-27T17:14:35.063Z,23.97
2019-04-27T17:17:11.879Z,20.40
2019-04-27T17:19:46.051Z,19.67
2019-04-27T17:22:22.661Z,22.17
2019-04-27T17:24:58.632Z,20.73
2019-04-27T17:27:35.909Z,26.77
2019-04-27T17:30:12.543Z,22.13
2019-04-27T17:32:54.586Z,25.90
2019-04-27T17:35:29.522Z,21.23
2019-04-27T17:38:10.487Z,21.00
2019-04-27T17:40:40.892Z,17.03
2019-04-27T17:43:16.047Z,20.80
2019-04-27T17:45:51.016Z,20.57
2019-04-27T17:48:26.568Z,20.30
2019-04-27T17:51:03.533Z,17.37
2019-04-27T17:53:38.346Z,20.17
2019-04-27T17:56:13.125Z,22.23
2019-04-27T17:58:48.968Z,16.37
2019-04-27T18:01:29.270Z,20.30
2019-04-27T18:04:02.926Z,19.30
2019-04-27T18:06:36.116Z,21.07
2019-04-27T18:09:13.079Z,21.00
2019-04-27T18:11:50.202Z,17.93
2019-04-27T18:14:24.642Z,25.00
2019-04-27T18:16:59.525Z,18.03
2019-04-27T18:19:44.270Z,14.47
2019-04-27T18:22:19.785Z,20.83
2019-04-27T18:24:59.925Z,20.07
2019-04-27T18:27:37.664Z,20.50
2019-04-27T18:30:33.761Z,19.70
2019-04-27T18:33:07.882Z,19.17
2019-04-27T18:35:43.797Z,19.17
2019-04-27T18:38:19.110Z,25.23
2019-04-27T18:40:54.842Z,15.97
2019-04-27T18:43:29.795Z,15.57
2019-04-27T18:46:05.149Z,19.60
2019-04-27T18:48:44.833Z,18.90
2019-04-27T18:51:28.813Z,17.23
2019-04-27T18:54:03.893Z,16.63
2019-04-27T18:56:41.551Z,18.90
2019-04-27T18:59:15.923Z,19.97
2019-04-27T19:01:51.760Z,27.30
2019-04-27T19:04:28.074Z,18.33
2019-04-27T19:07:15.732Z,22.93
2019-04-27T19:09:50.809Z,16.80
2019-04-27T19:12:26.368Z,19.73
2019-04-27T19:15:01.403Z,14.00
2019-04-27T19:17:38.694Z,17.33
2019-04-27T19:20:13.813Z,17.43
2019-04-27T19:22:49.258Z,18.87
2019-04-27T19:25:33.094Z,18.57
2019-04-27T19:28:11.077Z,15.33
2019-04-27T19:30:53.448Z,15.07
2019-04-27T19:33:30.772Z,24.23
2019-04-27T19:36:05.441Z,20.80
2019-04-27T19:38:40.793Z,16.27
2019-04-27T19:41:15.768Z,18.77
2019-04-27T19:43:50.697Z,17.40
2019-04-27T19:46:25.736Z,20.53
2019-04-27T19:49:01.036Z,21.73
2019-04-27T19:51:35.918Z,16.10
2019-04-27T19:54:11.448Z,17.20
2019-04-27T19:56:47.032Z,21.53
2019-04-27T19:59:24.116Z,24.90
2019-04-27T20:02:00.566Z,19.07
2019-04-27T20:04:38.183Z,20.00
2019-04-27T20:07:13.226Z,13.37
2019-04-27T20:09:54.063Z,15.93
2019-04-27T20:12:31.144Z,16.57
2019-04-27T20:15:06.388Z,11.37
2019-04-27T20:17:41.572Z,10.27
2019-04-27T20:20:17.265Z,18.00
2019-04-27T20:22:52.350Z,16.47
2019-04-27T20:25:27.448Z,13.30
2019-04-27T20:28:02.374Z,12.70
2019-04-27T20:30:37.645Z,14.43
2019-04-27T20:33:13.000Z,12.70
2019-04-27T20:35:48.673Z,14.97
2019-04-27T20:38:23.805Z,10.87
2019-04-27T20:40:59.154Z,14.90
2019-04-27T20:43:34.012Z,10.57
2019-04-27T20:46:11.723Z,16.13
2019-04-27T20:48:46.464Z,14.33
2019-04-27T20:51:23.467Z,15.13
2019-04-27T20:54:01.661Z,11.73
2019-04-27T20:56:36.815Z,13.17
2019-04-27T20:59:12.152Z,11.97
2019-04-27T21:01:48.225Z,11.87
2019-04-27T21:04:25.100Z,15.93
2019-04-27T21:07:02.591Z,15.80
2019-04-27T21:09:37.798Z,18.13
2019-04-27T21:12:13.069Z,19.87
2019-04-27T21:14:48.459Z,18.97
2019-04-27T21:17:24.408Z,21.27
2019-04-27T21:19:59.829Z,17.77
2019-04-27T21:22:35.944Z,22.57
2019-04-27T21:25:11.904Z,25.60
2019-04-27T21:27:47.517Z,25.23
2019-04-27T21:30:23.266Z,23.27
2019-04-27T21:33:00.712Z,23.60
2019-04-27T21:35:35.570Z,24.23
2019-04-27T21:38:11.753Z,23.33
2019-04-27T21:40:49.258Z,24.23
2019-04-27T21:43:23.664Z,26.13
2019-04-27T21:45:58.658Z,24.20
2019-04-27T21:48:34.282Z,27.13
2019-04-27T21:51:11.306Z,31.30
2019-04-27T21:53:56.520Z,30.43
2019-04-27T21:56:31.641Z,44.53
2019-04-27T21:59:06.939Z,42.63
2019-04-27T22:01:43.228Z,32.87
2019-04-27T22:04:22.870Z,34.90
2019-04-27T22:06:58.908Z,36.80
2019-04-27T22:09:35.607Z,29.13
2019-04-27T22:12:11.225Z,32.23
2019-04-27T22:14:50.949Z,34.93
2019-04-27T22:17:26.204Z,29.57
2019-04-27T22:20:01.770Z,34.27
2019-04-27T22:22:51.721Z,35.23
2019-04-27T22:25:28.759Z,34.23
2019-04-27T22:28:03.849Z,34.10
2019-04-27T22:30:39.094Z,39.03
2019-04-27T22:33:14.280Z,41.60
2019-04-27T22:35:51.637Z,36.07
2019-04-27T22:38:27.211Z,36.00
2019-04-27T22:41:16.064Z,41.53
2019-04-27T22:44:01.873Z,40.10
2019-04-27T22:46:42.339Z,41.37
2019-04-27T22:49:17.469Z,38.80
2019-04-27T22:51:53.289Z,34.50
2019-04-27T22:54:32.149Z,41.23
2019-04-27T22:57:11.232Z,33.97
2019-04-27T22:59:49.899Z,34.00
2019-04-27T23:02:33.436Z,36.70
2019-04-27T23:05:08.693Z,37.20
2019-04-27T23:07:44.216Z,32.10
2019-04-27T23:10:21.282Z,37.63
2019-04-27T23:12:58.074Z,30.27
2019-04-27T23:15:34.561Z,37.90
2019-04-27T23:18:10.476Z,30.87
2019-04-27T23:20:46.419Z,37.00
2019-04-27T23:23:21.859Z,36.17
2019-04-27T23:25:57.229Z,38.77
2019-04-27T23:28:32.864Z,39.50
2019-04-27T23:31:11.772Z,49.93
2019-04-27T23:33:48.604Z,51.60
2019-04-27T23:36:23.891Z,46.80
2019-04-27T23:39:02.372Z,44.50
2019-04-27T23:41:39.740Z,41.90
2019-04-27T23:44:19.359Z,43.57
2019-04-27T23:46:54.030Z,45.53
2019-04-27T23:49:38.737Z,41.13
2019-04-27T23:52:18.129Z,34.87
2019-04-27T23:54:53.511Z,38.33
2019-04-27T23:57:31.244Z,37.33
